Time;durP1;ratioP1;P1;durP2;ratioP2;P2;SDS_P1;SDS_P2;PMS_P1;PMS_P2;Temp;Humidity;BMP_temperature;BMP_pressure;BME280_temperature;BME280_humidity;BME280_pressure;Samples;Min_cycle;Max_cycle;Signal;HPM_P1;HPM_P2
2023/09/01 00:00:47;;;;;;;4.65;2.10;;;;;;;;;;5062075;28;20024;-62
2023/09/01 00:03:13;;;;;;;4.85;1.67;;;;;;;;;;5063703;28;20020;-62
2023/09/01 00:05:40;;;;;;;5.43;2.10;;;;;;;;;;5063139;28;20175;-62
2023/09/01 00:08:06;;;;;;;7.78;2.20;;;;;;;;;;5062875;28;20034;-62
2023/09/01 00:10:35;;;;;;;4.78;2.45;;;;;;;;;;5063337;28;20115;-62
2023/09/01 00:13:02;;;;;;;4.78;2.10;;;;;;;;;;5063381;28;20043;-62
2023/09/01 00:15:28;;;;;;;5.65;2.33;;;;;;;;;;5063143;28;20047;-62
2023/09/01 00:17:54;;;;;;;4.57;2.08;;;;;;;;;;5061745;28;20044;-62
2023/09/01 00:20:20;;;;;;;6.82;2.42;;;;;;;;;;5062699;28;20028;-66
2023/09/01 00:22:47;;;;;;;5.70;2.30;;;;;;;;;;5063224;28;20028;-66
2023/09/01 00:25:13;;;;;;;6.18;2.17;;;;;;;;;;5062269;28;20042;-66
2023/09/01 00:27:39;;;;;;;4.65;2.38;;;;;;;;;;5059390;28;20135;-66
2023/09/01 00:30:05;;;;;;;5.32;2.25;;;;;;;;;;5061790;28;20390;-66
2023/09/01 00:32:31;;;;;;;5.82;2.17;;;;;;;;;;5063607;28;20032;-66
2023/09/01 00:34:57;;;;;;;5.22;2.30;;;;;;;;;;5060835;28;20043;-66
2023/09/01 00:37:24;;;;;;;7.00;2.55;;;;;;;;;;5062088;28;20035;-67
2023/09/01 00:39:50;;;;;;;5.40;2.47;;;;;;;;;;5062369;28;20032;-67
2023/09/01 00:42:16;;;;;;;6.25;2.25;;;;;;;;;;5063728;28;20414;-67
2023/09/01 00:44:42;;;;;;;6.15;2.30;;;;;;;;;;5060251;28;20543;-66
2023/09/01 00:47:08;;;;;;;7.35;2.40;;;;;;;;;;5062500;28;20051;-66
2023/09/01 00:49:38;;;;;;;7.10;2.83;;;;;;;;;;5060800;28;20823;-66
2023/09/01 00:52:04;;;;;;;7.70;2.90;;;;;;;;;;5059934;28;20051;-66
2023/09/01 00:54:31;;;;;;;6.55;2.33;;;;;;;;;;5062945;28;20039;-66
2023/09/01 00:56:57;;;;;;;6.07;2.17;;;;;;;;;;5062494;28;20123;-66
2023/09/01 00:59:24;;;;;;;5.97;1.80;;;;;;;;;;5062259;28;20028;-66
2023/09/01 01:01:50;;;;;;;3.20;1.77;;;;;;;;;;5060921;28;20033;-66
2023/09/01 01:04:17;;;;;;;5.88;1.58;;;;;;;;;;5061911;28;20790;-66
2023/09/01 01:06:59;;;;;;;3.95;1.80;;;;;;;;;;5061566;28;20154;-66
2023/09/01 01:09:48;;;;;;;6.30;2.58;;;;;;;;;;5060970;28;20608;-66
2023/09/01 01:12:14;;;;;;;6.15;2.28;;;;;;;;;;5054573;28;21903;-66
2023/09/01 01:14:47;;;;;;;7.40;2.50;;;;;;;;;;5061773;28;20696;-66
2023/09/01 01:17:14;;;;;;;6.68;2.75;;;;;;;;;;5061812;28;20117;-66
2023/09/01 01:19:49;;;;;;;5.75;2.67;;;;;;;;;;5062368;28;20032;-67
2023/09/01 01:22:18;;;;;;;4.30;1.90;;;;;;;;;;5061712;28;20027;-66
2023/09/01 01:24:45;;;;;;;2.95;1.27;;;;;;;;;;5061920;28;20042;-67
2023/09/01 01:27:11;;;;;;;6.00;2.00;;;;;;;;;;5060479;28;21875;-66
2023/09/01 01:29:37;;;;;;;3.55;1.40;;;;;;;;;;5060761;28;20044;-62
2023/09/01 01:32:03;;;;;;;3.13;1.50;;;;;;;;;;5060831;28;20032;-61
2023/09/01 01:34:30;;;;;;;5.97;2.03;;;;;;;;;;5059895;28;21325;-62
2023/09/01 01:37:02;;;;;;;3.13;1.60;;;;;;;;;;5061219;28;20060;-62
2023/09/01 01:39:29;;;;;;;5.57;1.88;;;;;;;;;;5060668;28;20020;-61
2023/09/01 01:42:08;;;;;;;4.20;1.67;;;;;;;;;;5060949;28;20059;-62
2023/09/01 01:44:35;;;;;;;3.20;1.35;;;;;;;;;;5062103;28;20379;-62
2023/09/01 01:47:02;;;;;;;3.22;1.63;;;;;;;;;;5060636;28;20028;-62
2023/09/01 01:49:28;;;;;;;2.42;1.20;;;;;;;;;;5062432;28;20035;-62
2023/09/01 01:51:55;;;;;;;3.92;1.20;;;;;;;;;;5061387;28;20036;-62
2023/09/01 01:54:21;;;;;;;3.90;1.30;;;;;;;;;;5061610;28;20043;-62
2023/09/01 01:56:47;;;;;;;1.45;1.00;;;;;;;;;;5061540;28;20068;-62
2023/09/01 01:59:13;;;;;;;3.60;1.42;;;;;;;;;;5062186;28;20039;-62
2023/09/01 02:01:39;;;;;;;3.05;1.33;;;;;;;;;;5061871;28;20040;-61
2023/09/01 02:04:05;;;;;;;3.63;1.17;;;;;;;;;;5061355;28;20032;-62
2023/09/01 02:06:31;;;;;;;5.47;1.40;;;;;;;;;;5062420;28;20037;-61
2023/09/01 02:08:57;;;;;;;3.00;1.42;;;;;;;;;;5061531;28;20040;-61
2023/09/01 02:11:23;;;;;;;2.03;1.10;;;;;;;;;;5061930;28;20336;-61
2023/09/01 02:13:49;;;;;;;2.55;1.20;;;;;;;;;;5061359;28;20051;-61
2023/09/01 02:16:17;;;;;;;2.03;1.08;;;;;;;;;;5062545;28;20036;-62
2023/09/01 02:18:43;;;;;;;3.92;1.33;;;;;;;;;;5066512;28;20399;-61
2023/09/01 02:21:09;;;;;;;6.43;1.90;;;;;;;;;;5065557;28;20128;-61
2023/09/01 02:23:35;;;;;;;3.17;1.38;;;;;;;;;;5064771;28;20040;-62
2023/09/01 02:26:01;;;;;;;2.35;1.10;;;;;;;;;;5065107;28;20047;-61
2023/09/01 02:28:27;;;;;;;2.78;1.00;;;;;;;;;;5065748;28;20577;-62
2023/09/01 02:30:53;;;;;;;1.15;0.85;;;;;;;;;;5064831;28;20470;-62
2023/09/01 02:33:19;;;;;;;1.95;0.80;;;;;;;;;;5065780;28;20726;-62
2023/09/01 02:35:45;;;;;;;2.50;0.93;;;;;;;;;;5064420;28;21145;-62
2023/09/01 02:38:12;;;;;;;3.15;1.00;;;;;;;;;;5064628;28;20027;-62
2023/09/01 02:40:39;;;;;;;1.45;0.90;;;;;;;;;;5065100;28;20039;-62
2023/09/01 02:43:05;;;;;;;2.58;1.33;;;;;;;;;;5064932;28;20035;-61
2023/09/01 02:45:31;;;;;;;2.17;0.95;;;;;;;;;;5064292;28;20031;-62
2023/09/01 02:47:57;;;;;;;2.97;1.00;;;;;;;;;;5065693;28;20031;-61
2023/09/01 02:50:24;;;;;;;3.20;1.55;;;;;;;;;;5064471;28;20656;-61
2023/09/01 02:52:50;;;;;;;1.15;0.80;;;;;;;;;;5064631;28;21821;-61
2023/09/01 02:55:17;;;;;;;2.70;1.00;;;;;;;;;;5065046;28;20137;-61
2023/09/01 02:57:44;;;;;;;2.15;1.15;;;;;;;;;;5064515;28;20024;-61
2023/09/01 03:00:21;;;;;;;1.92;1.20;;;;;;;;;;5062405;28;20119;-61
2023/09/01 03:02:48;;;;;;;2.08;1.20;;;;;;;;;;5065210;28;20983;-61
2023/09/01 03:05:14;;;;;;;2.22;1.10;;;;;;;;;;5064472;28;20027;-62
2023/09/01 03:07:41;;;;;;;7.47;1.67;;;;;;;;;;5064009;28;20032;-61
2023/09/01 03:10:07;;;;;;;2.72;1.45;;;;;;;;;;5064814;28;20038;-61
2023/09/01 03:12:34;;;;;;;2.08;1.13;;;;;;;;;;5063122;28;20031;-62
2023/09/01 03:15:00;;;;;;;4.13;1.52;;;;;;;;;;5063896;28;21341;-61
2023/09/01 03:17:26;;;;;;;1.02;0.80;;;;;;;;;;5064723;28;20126;-62
2023/09/01 03:19:53;;;;;;;2.10;0.80;;;;;;;;;;5064249;28;20556;-61
2023/09/01 03:22:19;;;;;;;1.83;0.90;;;;;;;;;;5063867;28;20546;-61
2023/09/01 03:24:45;;;;;;;1.10;0.80;;;;;;;;;;5062293;28;20399;-61
2023/09/01 03:27:14;;;;;;;1.85;1.00;;;;;;;;;;5062266;28;20442;-62
2023/09/01 03:29:42;;;;;;;2.45;1.05;;;;;;;;;;5064110;28;20035;-61
2023/09/01 03:32:10;;;;;;;3.88;1.35;;;;;;;;;;5065005;28;20028;-61
2023/09/01 03:34:36;;;;;;;2.33;1.35;;;;;;;;;;5062635;28;20043;-62
2023/09/01 03:37:02;;;;;;;3.38;1.25;;;;;;;;;;5062474;28;20521;-62
2023/09/01 03:39:28;;;;;;;2.75;1.20;;;;;;;;;;5063126;28;20028;-61
2023/09/01 03:41:54;;;;;;;1.67;0.77;;;;;;;;;;5062966;28;20209;-62
2023/09/01 03:44:20;;;;;;;3.75;1.10;;;;;;;;;;5062501;28;20990;-61
2023/09/01 03:46:46;;;;;;;1.92;1.00;;;;;;;;;;5062028;28;20737;-61
2023/09/01 03:49:12;;;;;;;8.63;1.85;;;;;;;;;;5064666;28;20699;-61
2023/09/01 03:51:38;;;;;;;2.10;0.98;;;;;;;;;;5063141;28;20837;-62
2023/09/01 03:54:04;;;;;;;2.13;0.98;;;;;;;;;;5062554;28;20665;-61
2023/09/01 03:56:30;;;;;;;2.95;1.30;;;;;;;;;;5063936;28;20036;-61
2023/09/01 03:58:57;;;;;;;2.00;1.10;;;;;;;;;;5064094;28;20122;-62
2023/09/01 04:01:23;;;;;;;3.28;1.33;;;;;;;;;;5064095;28;20043;-61
2023/09/01 04:03:49;;;;;;;4.32;1.40;;;;;;;;;;5063701;28;20889;-62
2023/09/01 04:06:15;;;;;;;5.45;1.85;;;;;;;;;;5063141;28;20036;-62
2023/09/01 04:08:41;;;;;;;5.35;2.10;;;;;;;;;;5063135;28;20069;-62
2023/09/01 04:11:07;;;;;;;6.05;2.03;;;;;;;;;;5063384;28;20423;-62
2023/09/01 04:13:33;;;;;;;4.93;2.28;;;;;;;;;;5064177;28;20608;-62
2023/09/01 04:16:00;;;;;;;3.90;1.73;;;;;;;;;;5060384;28;20064;-61
2023/09/01 04:18:26;;;;;;;8.32;2.60;;;;;;;;;;5062792;28;20185;-61
2023/09/01 04:20:53;;;;;;;7.22;2.60;;;;;;;;;;5061227;28;20055;-61
2023/09/01 04:23:20;;;;;;;3.83;2.08;;;;;;;;;;5063427;28;20783;-61
2023/09/01 04:25:46;;;;;;;4.03;1.60;;;;;;;;;;5060804;28;20028;-61
2023/09/01 04:28:15;;;;;;;4.68;1.30;;;;;;;;;;5062668;28;20043;-62
2023/09/01 04:30:45;;;;;;;3.22;1.45;;;;;;;;;;5062881;28;20035;-62
2023/09/01 04:33:12;;;;;;;4.05;1.30;;;;;;;;;;5062731;28;20814;-61
2023/09/01 04:35:38;;;;;;;1.75;1.00;;;;;;;;;;5061617;28;20036;-61
2023/09/01 04:38:04;;;;;;;2.75;1.50;;;;;;;;;;5062823;28;20153;-61
2023/09/01 04:40:30;;;;;;;3.03;1.52;;;;;;;;;;5062778;28;20032;-61
2023/09/01 04:42:56;;;;;;;2.42;1.20;;;;;;;;;;5062816;28;20036;-61
2023/09/01 04:45:25;;;;;;;2.42;1.30;;;;;;;;;;5061771;28;20036;-62
2023/09/01 04:47:52;;;;;;;3.22;1.10;;;;;;;;;;5060465;28;20040;-61
2023/09/01 04:50:18;;;;;;;2.28;1.00;;;;;;;;;;5061564;28;20032;-61
2023/09/01 04:52:44;;;;;;;2.05;1.33;;;;;;;;;;5061194;28;20028;-61
2023/09/01 04:55:10;;;;;;;1.98;1.10;;;;;;;;;;5062448;28;20058;-61
2023/09/01 04:57:37;;;;;;;1.42;0.90;;;;;;;;;;5062925;28;20461;-61
2023/09/01 05:00:04;;;;;;;3.20;1.00;;;;;;;;;;5062483;28;20158;-61
2023/09/01 05:02:30;;;;;;;1.00;0.70;;;;;;;;;;5060302;28;20023;-61
2023/09/01 05:04:56;;;;;;;3.17;1.05;;;;;;;;;;5062530;28;20041;-61
2023/09/01 05:07:22;;;;;;;2.63;1.20;;;;;;;;;;5062014;28;20039;-61
2023/09/01 05:09:48;;;;;;;2.33;0.88;;;;;;;;;;5061961;28;20074;-61
2023/09/01 05:12:14;;;;;;;2.35;0.80;;;;;;;;;;5062137;28;20044;-61
2023/09/01 05:14:40;;;;;;;1.63;0.73;;;;;;;;;;5060841;28;20130;-61
2023/09/01 05:17:06;;;;;;;2.08;0.82;;;;;;;;;;5061606;28;20078;-61
2023/09/01 05:19:32;;;;;;;2.28;0.85;;;;;;;;;;5062025;28;20035;-61
2023/09/01 05:21:58;;;;;;;0.90;0.68;;;;;;;;;;5061379;28;20036;-61
2023/09/01 05:24:24;;;;;;;1.52;0.90;;;;;;;;;;5061287;28;20558;-62
2023/09/01 05:26:50;;;;;;;4.13;1.15;;;;;;;;;;5061172;28;20745;-61
2023/09/01 05:29:16;;;;;;;2.75;1.20;;;;;;;;;;5062194;28;20039;-61
2023/09/01 05:31:43;;;;;;;3.90;1.33;;;;;;;;;;5061568;28;20032;-62
2023/09/01 05:34:09;;;;;;;5.65;1.55;;;;;;;;;;5062821;28;20096;-61
2023/09/01 05:36:36;;;;;;;3.97;1.40;;;;;;;;;;5060226;28;20032;-61
2023/09/01 05:39:03;;;;;;;4.40;1.40;;;;;;;;;;5059793;28;20028;-62
2023/09/01 05:41:29;;;;;;;5.97;1.70;;;;;;;;;;5059619;28;20023;-61
2023/09/01 05:43:55;;;;;;;5.68;1.27;;;;;;;;;;5061286;28;20025;-61
2023/09/01 05:46:21;;;;;;;2.67;1.25;;;;;;;;;;5059178;28;20040;-61
2023/09/01 05:48:48;;;;;;;4.47;1.33;;;;;;;;;;5060319;28;20039;-62
2023/09/01 05:51:14;;;;;;;3.47;1.40;;;;;;;;;;5062000;28;20047;-61
2023/09/01 05:53:40;;;;;;;3.08;1.50;;;;;;;;;;5065195;28;20051;-62
2023/09/01 05:56:06;;;;;;;4.78;1.58;;;;;;;;;;5062768;28;20062;-61
2023/09/01 05:58:33;;;;;;;5.38;1.50;;;;;;;;;;5065513;28;20028;-62
2023/09/01 06:01:00;;;;;;;4.47;1.52;;;;;;;;;;5065558;28;20035;-62
2023/09/01 06:03:26;;;;;;;5.00;1.48;;;;;;;;;;5066204;28;20182;-62
2023/09/01 06:05:52;;;;;;;4.05;1.95;;;;;;;;;;5065428;28;20035;-61
2023/09/01 06:08:19;;;;;;;4.70;1.88;;;;;;;;;;5066366;28;20070;-61
2023/09/01 06:10:45;;;;;;;4.13;1.65;;;;;;;;;;5064626;28;20040;-62
2023/09/01 06:13:12;;;;;;;5.47;1.80;;;;;;;;;;5066237;28;20039;-62
2023/09/01 06:15:41;;;;;;;4.15;1.73;;;;;;;;;;5065530;28;21486;-61
2023/09/01 06:18:07;;;;;;;5.93;2.15;;;;;;;;;;5066264;28;20050;-61
2023/09/01 06:20:33;;;;;;;5.35;1.80;;;;;;;;;;5061229;28;21998;-62
2023/09/01 06:22:59;;;;;;;4.28;1.40;;;;;;;;;;5065892;28;20470;-62
2023/09/01 06:25:28;;;;;;;3.53;1.60;;;;;;;;;;5066068;28;20511;-61
2023/09/01 06:27:54;;;;;;;4.10;1.60;;;;;;;;;;5064725;28;20042;-62
2023/09/01 06:30:20;;;;;;;5.70;1.90;;;;;;;;;;5064789;28;20040;-61
2023/09/01 06:32:46;;;;;;;4.38;1.73;;;;;;;;;;5065435;28;20163;-62
2023/09/01 06:35:12;;;;;;;3.88;1.50;;;;;;;;;;5064998;28;20156;-62
2023/09/01 06:37:38;;;;;;;4.03;1.60;;;;;;;;;;5065263;28;20036;-62
2023/09/01 06:40:04;;;;;;;3.75;1.58;;;;;;;;;;5064697;28;20032;-62
2023/09/01 06:42:30;;;;;;;3.40;1.75;;;;;;;;;;5064193;28;20749;-61
2023/09/01 06:44:59;;;;;;;4.03;1.95;;;;;;;;;;5064170;28;20040;-61
2023/09/01 06:47:25;;;;;;;5.00;2.10;;;;;;;;;;5064783;28;20035;-61
2023/09/01 06:49:52;;;;;;;4.63;1.73;;;;;;;;;;5064552;28;20028;-61
2023/09/01 06:52:18;;;;;;;5.70;1.95;;;;;;;;;;5065175;28;20024;-62
2023/09/01 06:54:44;;;;;;;6.53;2.10;;;;;;;;;;5065521;28;20040;-62
2023/09/01 06:57:10;;;;;;;6.63;1.90;;;;;;;;;;5063991;28;20036;-62
2023/09/01 06:59:36;;;;;;;7.47;2.13;;;;;;;;;;5065054;28;20404;-61
2023/09/01 07:02:03;;;;;;;5.85;1.88;;;;;;;;;;5060560;28;20085;-62
2023/09/01 07:04:29;;;;;;;4.85;2.00;;;;;;;;;;5065461;28;20024;-61
2023/09/01 07:06:55;;;;;;;4.95;2.13;;;;;;;;;;5061450;28;20040;-62
2023/09/01 07:09:21;;;;;;;6.40;2.30;;;;;;;;;;5053453;28;20040;-62
2023/09/01 07:11:47;;;;;;;5.28;2.80;;;;;;;;;;5057075;28;20043;-61
2023/09/01 07:14:13;;;;;;;6.47;1.90;;;;;;;;;;5055232;28;20049;-61
2023/09/01 07:16:39;;;;;;;6.15;2.22;;;;;;;;;;5054716;28;20175;-61
2023/09/01 07:19:05;;;;;;;6.10;2.53;;;;;;;;;;5055994;28;20043;-62
2023/09/01 07:21:31;;;;;;;10.02;3.00;;;;;;;;;;5056400;28;20445;-61
2023/09/01 07:23:57;;;;;;;7.00;2.45;;;;;;;;;;5054473;28;20028;-62
2023/09/01 07:26:23;;;;;;;6.70;2.58;;;;;;;;;;5055503;28;20036;-61
2023/09/01 07:28:49;;;;;;;9.43;3.55;;;;;;;;;;5055226;28;20113;-62
2023/09/01 07:31:15;;;;;;;5.38;2.45;;;;;;;;;;5056180;28;20039;-62
2023/09/01 07:33:42;;;;;;;5.20;2.05;;;;;;;;;;5055641;28;20049;-62
2023/09/01 07:36:12;;;;;;;6.50;2.45;;;;;;;;;;5055788;28;20122;-62
2023/09/01 07:38:38;;;;;;;8.05;2.80;;;;;;;;;;5055747;28;20598;-62
2023/09/01 07:41:04;;;;;;;5.93;2.47;;;;;;;;;;5055275;28;20028;-62
2023/09/01 07:43:31;;;;;;;5.35;2.30;;;;;;;;;;5053605;28;20043;-62
2023/09/01 07:46:01;;;;;;;4.43;1.88;;;;;;;;;;5052942;28;20691;-62
2023/09/01 07:48:27;;;;;;;7.15;2.40;;;;;;;;;;5055195;28;21882;-62
2023/09/01 07:50:53;;;;;;;6.65;2.00;;;;;;;;;;5049865;28;20047;-62
2023/09/01 07:53:19;;;;;;;8.95;2.38;;;;;;;;;;5048728;28;20059;-61
2023/09/01 07:55:45;;;;;;;4.75;1.60;;;;;;;;;;5045721;28;20036;-62
2023/09/01 07:58:11;;;;;;;5.43;1.77;;;;;;;;;;5050075;28;20581;-62
2023/09/01 08:00:39;;;;;;;5.95;2.05;;;;;;;;;;5049691;28;20062;-62
2023/09/01 08:03:10;;;;;;;5.15;1.90;;;;;;;;;;5049870;28;20046;-62
2023/09/01 08:05:36;;;;;;;7.53;2.28;;;;;;;;;;5049818;28;20508;-62
2023/09/01 08:08:03;;;;;;;5.90;2.20;;;;;;;;;;5050618;28;20103;-62
2023/09/01 08:10:29;;;;;;;7.38;2.25;;;;;;;;;;5049119;28;20028;-62
2023/09/01 08:12:55;;;;;;;4.50;1.93;;;;;;;;;;5011139;28;1123220;-62
2023/09/01 08:15:21;;;;;;;4.72;1.67;;;;;;;;;;5051411;28;20395;-61
2023/09/01 08:17:49;;;;;;;7.10;2.38;;;;;;;;;;5051508;28;20603;-61
2023/09/01 08:20:17;;;;;;;3.65;1.40;;;;;;;;;;5050705;28;20036;-62
2023/09/01 08:22:43;;;;;;;4.93;1.70;;;;;;;;;;5050021;28;20063;-62
2023/09/01 08:25:11;;;;;;;6.93;1.63;;;;;;;;;;5051269;28;20020;-62
2023/09/01 08:27:37;;;;;;;5.25;1.88;;;;;;;;;;5051212;28;20417;-61
2023/09/01 08:30:04;;;;;;;7.68;1.80;;;;;;;;;;5050300;28;20036;-62
2023/09/01 08:32:30;;;;;;;4.43;1.73;;;;;;;;;;5050626;28;20035;-62
2023/09/01 08:34:56;;;;;;;5.43;1.73;;;;;;;;;;5051417;28;20040;-61
2023/09/01 08:37:22;;;;;;;6.10;1.30;;;;;;;;;;5050208;28;20635;-62
2023/09/01 08:39:48;;;;;;;3.20;1.33;;;;;;;;;;5050539;28;20572;-62
2023/09/01 08:42:17;;;;;;;5.43;1.30;;;;;;;;;;5049022;28;20065;-61
2023/09/01 08:44:43;;;;;;;5.88;1.50;;;;;;;;;;5049846;28;20032;-62
2023/09/01 08:47:10;;;;;;;3.08;1.20;;;;;;;;;;5048759;28;20036;-62
2023/09/01 08:49:36;;;;;;;4.32;1.30;;;;;;;;;;5050925;28;20055;-62
2023/09/01 08:52:03;;;;;;;6.63;1.10;;;;;;;;;;5049859;28;20047;-62
2023/09/01 08:54:30;;;;;;;11.60;1.58;;;;;;;;;;5050146;28;20075;-62
2023/09/01 08:56:57;;;;;;;5.45;1.10;;;;;;;;;;5049592;28;20081;-62
2023/09/01 08:59:24;;;;;;;5.07;1.27;;;;;;;;;;5051042;28;20111;-61
2023/09/01 09:01:51;;;;;;;6.65;2.13;;;;;;;;;;5048756;28;20039;-62
2023/09/01 09:04:17;;;;;;;5.43;1.55;;;;;;;;;;5049910;28;20020;-62
2023/09/01 09:06:43;;;;;;;6.32;1.52;;;;;;;;;;5049539;28;20051;-62
2023/09/01 09:09:14;;;;;;;7.32;1.38;;;;;;;;;;5049003;28;20031;-62
2023/09/01 09:11:54;;;;;;;5.70;1.42;;;;;;;;;;5049937;28;20035;-62
2023/09/01 09:14:20;;;;;;;3.75;1.23;;;;;;;;;;5050414;28;20052;-62
2023/09/01 09:16:53;;;;;;;5.10;1.83;;;;;;;;;;5047666;28;20028;-62
2023/09/01 09:19:19;;;;;;;5.55;1.27;;;;;;;;;;5049104;28;20150;-62
2023/09/01 09:21:45;;;;;;;7.40;1.17;;;;;;;;;;5048290;28;20697;-62
2023/09/01 09:24:11;;;;;;;3.88;1.00;;;;;;;;;;5049485;28;20109;-62
2023/09/01 09:26:37;;;;;;;4.55;1.67;;;;;;;;;;5044003;28;20039;-62
2023/09/01 09:29:08;;;;;;;4.05;1.05;;;;;;;;;;5049315;28;20576;-62
2023/09/01 09:31:44;;;;;;;6.07;1.23;;;;;;;;;;5049043;28;20028;-61
2023/09/01 09:34:15;;;;;;;4.47;1.48;;;;;;;;;;5047083;28;20024;-62
2023/09/01 09:36:42;;;;;;;5.68;1.20;;;;;;;;;;5046552;28;20619;-62
2023/09/01 09:39:22;;;;;;;7.47;1.27;;;;;;;;;;5046047;28;20819;-62
2023/09/01 09:41:48;;;;;;;4.20;1.27;;;;;;;;;;5047613;28;20036;-62
2023/09/01 09:44:23;;;;;;;3.42;1.00;;;;;;;;;;5047590;28;20911;-63
2023/09/01 09:46:50;;;;;;;2.88;0.70;;;;;;;;;;5045617;28;20047;-62
2023/09/01 09:49:16;;;;;;;5.88;1.30;;;;;;;;;;5046524;28;20033;-62
2023/09/01 09:51:42;;;;;;;7.40;1.10;;;;;;;;;;5043451;28;20056;-62
2023/09/01 09:54:11;;;;;;;1.73;0.95;;;;;;;;;;5048024;28;20076;-62
2023/09/01 09:56:39;;;;;;;3.47;1.02;;;;;;;;;;5045734;28;20088;-62
2023/09/01 09:59:06;;;;;;;3.67;1.30;;;;;;;;;;5046783;28;20086;-62
2023/09/01 10:01:35;;;;;;;3.38;1.10;;;;;;;;;;5046923;28;21409;-62
2023/09/01 10:04:05;;;;;;;4.50;1.23;;;;;;;;;;5047124;28;21373;-62
2023/09/01 10:06:31;;;;;;;3.35;0.98;;;;;;;;;;5048379;28;20145;-62
2023/09/01 10:08:59;;;;;;;6.65;1.60;;;;;;;;;;5047803;28;20024;-62
2023/09/01 10:11:28;;;;;;;4.78;1.15;;;;;;;;;;5046619;28;20043;-62
2023/09/01 10:13:54;;;;;;;4.20;1.92;;;;;;;;;;5048877;28;20093;-62
2023/09/01 10:16:20;;;;;;;2.03;0.95;;;;;;;;;;5048560;28;20127;-62
2023/09/01 10:18:47;;;;;;;5.28;1.20;;;;;;;;;;5049633;28;20043;-62
2023/09/01 10:21:13;;;;;;;5.55;1.00;;;;;;;;;;5048813;28;20020;-62
2023/09/01 10:23:40;;;;;;;3.67;1.00;;;;;;;;;;5049665;28;20022;-62
2023/09/01 10:26:29;;;;;;;3.17;0.90;;;;;;;;;;5048875;28;20040;-62
2023/09/01 10:28:56;;;;;;;1.90;0.88;;;;;;;;;;5048026;28;20636;-62
2023/09/01 10:31:26;;;;;;;4.25;0.90;;;;;;;;;;5049779;28;20092;-62
2023/09/01 10:34:27;;;;;;;4.30;1.00;;;;;;;;;;5049691;28;20063;-62
2023/09/01 10:37:13;;;;;;;3.58;1.20;;;;;;;;;;4967642;28;20189;-62
2023/09/01 10:39:39;;;;;;;2.83;1.10;;;;;;;;;;5047036;28;20040;-62
2023/09/01 10:42:08;;;;;;;5.10;1.20;;;;;;;;;;5050434;28;20648;-62
2023/09/01 10:44:42;;;;;;;6.03;1.55;;;;;;;;;;5053446;28;20171;-62
2023/09/01 10:47:27;;;;;;;3.28;1.02;;;;;;;;;;5050757;28;20041;-62
2023/09/01 10:49:56;;;;;;;3.63;1.02;;;;;;;;;;5052825;28;20453;-62
2023/09/01 10:52:23;;;;;;;3.75;1.00;;;;;;;;;;5051859;28;20468;-62
2023/09/01 10:55:05;;;;;;;3.75;1.30;;;;;;;;;;5052521;28;20027;-62
2023/09/01 10:57:51;;;;;;;5.13;1.52;;;;;;;;;;5051790;28;21565;-62
2023/09/01 11:00:27;;;;;;;6.10;1.15;;;;;;;;;;5051242;28;20036;-62
2023/09/01 11:02:53;;;;;;;4.88;1.45;;;;;;;;;;5048370;28;20040;-62
2023/09/01 11:05:38;;;;;;;3.72;1.10;;;;;;;;;;5050833;28;20028;-62
2023/09/01 11:08:15;;;;;;;4.82;1.20;;;;;;;;;;5047759;28;20410;-62
2023/09/01 11:10:41;;;;;;;5.47;1.60;;;;;;;;;;5049201;28;20041;-62
2023/09/01 11:13:17;;;;;;;3.65;1.30;;;;;;;;;;5048161;28;20090;-62
2023/09/01 11:15:47;;;;;;;4.00;1.05;;;;;;;;;;5048367;28;21875;-62
2023/09/01 11:18:20;;;;;;;6.43;1.52;;;;;;;;;;5047962;28;21103;-62
2023/09/01 11:20:50;;;;;;;5.78;1.10;;;;;;;;;;5048210;28;20032;-62
2023/09/01 11:23:23;;;;;;;7.07;1.38;;;;;;;;;;5046189;28;20032;-62
2023/09/01 11:25:55;;;;;;;4.55;1.35;;;;;;;;;;5048112;28;20036;-62
2023/09/01 11:28:22;;;;;;;7.80;1.42;;;;;;;;;;5048448;28;20032;-62
2023/09/01 11:30:55;;;;;;;6.40;1.38;;;;;;;;;;5050015;28;20116;-63
2023/09/01 11:33:24;;;;;;;3.92;1.38;;;;;;;;;;5051026;28;20028;-62
2023/09/01 11:36:03;;;;;;;9.48;1.35;;;;;;;;;;5052126;28;20142;-62
2023/09/01 11:38:29;;;;;;;6.95;1.58;;;;;;;;;;5051116;28;20066;-62
2023/09/01 11:40:55;;;;;;;7.43;1.88;;;;;;;;;;5051900;28;20110;-62
2023/09/01 11:43:21;;;;;;;4.65;1.20;;;;;;;;;;5051407;28;20063;-62
2023/09/01 11:45:51;;;;;;;4.97;1.40;;;;;;;;;;5052605;28;20032;-62
2023/09/01 11:48:24;;;;;;;5.13;1.30;;;;;;;;;;5049669;28;20032;-63
2023/09/01 11:50:50;;;;;;;8.65;1.85;;;;;;;;;;5048019;28;20036;-64
2023/09/01 11:53:23;;;;;;;4.20;1.42;;;;;;;;;;5049018;28;20112;-63
2023/09/01 11:55:52;;;;;;;3.80;1.38;;;;;;;;;;5049542;28;20246;-63
2023/09/01 11:58:18;;;;;;;4.10;1.33;;;;;;;;;;5050063;28;20043;-63
2023/09/01 12:00:45;;;;;;;6.15;1.83;;;;;;;;;;5067403;28;20842;-63
2023/09/01 12:03:11;;;;;;;7.00;1.80;;;;;;;;;;5053091;28;21617;-62
2023/09/01 12:05:39;;;;;;;6.90;2.03;;;;;;;;;;5054434;28;20068;-62
2023/09/01 12:08:05;;;;;;;5.63;1.70;;;;;;;;;;5055094;28;20031;-63
2023/09/01 12:10:32;;;;;;;8.10;1.73;;;;;;;;;;5055501;28;20323;-62
2023/09/01 12:13:10;;;;;;;8.18;1.95;;;;;;;;;;5053328;28;20039;-62
2023/09/01 12:15:56;;;;;;;9.25;2.22;;;;;;;;;;5054624;28;21119;-63
2023/09/01 12:18:40;;;;;;;10.48;2.03;;;;;;;;;;5054545;28;20032;-62
2023/09/01 12:21:08;;;;;;;7.55;1.95;;;;;;;;;;5055293;28;20023;-62
2023/09/01 12:23:41;;;;;;;8.02;2.20;;;;;;;;;;5054924;28;20020;-62
2023/09/01 12:26:07;;;;;;;;;;;;;;;;;;5054725;28;20038;-62
2023/09/01 12:28:35;;;;;;;4.20;1.48;;;;;;;;;;5054996;28;19915;-62
2023/09/01 12:31:01;;;;;;;4.20;1.80;;;;;;;;;;5055404;28;20044;-62
2023/09/01 12:33:27;;;;;;;8.52;2.10;;;;;;;;;;5056243;28;20054;-62
2023/09/01 12:35:54;;;;;;;8.13;2.17;;;;;;;;;;5055506;28;20036;-62
2023/09/01 12:38:20;;;;;;;4.80;1.90;;;;;;;;;;5053252;28;20036;-63
2023/09/01 12:40:46;;;;;;;6.75;2.15;;;;;;;;;;5053791;28;20236;-62
2023/09/01 12:43:13;;;;;;;5.63;2.00;;;;;;;;;;5055738;28;20032;-62
2023/09/01 12:45:39;;;;;;;6.97;2.47;;;;;;;;;;5055684;28;20497;-62
2023/09/01 12:48:05;;;;;;;8.52;2.03;;;;;;;;;;5054464;28;20028;-62
2023/09/01 12:50:31;;;;;;;7.35;2.20;;;;;;;;;;5055649;28;20070;-62
2023/09/01 12:52:58;;;;;;;8.27;2.17;;;;;;;;;;5055937;28;20529;-62
2023/09/01 12:55:24;;;;;;;8.27;2.45;;;;;;;;;;5055836;28;21169;-62
2023/09/01 12:57:51;;;;;;;7.13;2.70;;;;;;;;;;5056013;28;20046;-62
2023/09/01 13:00:17;;;;;;;8.93;2.33;;;;;;;;;;5055317;28;20033;-62
2023/09/01 13:02:44;;;;;;;8.55;2.50;;;;;;;;;;5055698;28;20048;-62
2023/09/01 13:05:10;;;;;;;7.22;2.35;;;;;;;;;;5054929;28;20210;-62
2023/09/01 13:07:36;;;;;;;8.88;2.03;;;;;;;;;;5054539;28;20352;-62
2023/09/01 13:10:02;;;;;;;5.78;2.03;;;;;;;;;;5054915;28;20652;-62
2023/09/01 13:12:28;;;;;;;6.18;2.20;;;;;;;;;;5055107;28;20119;-62
2023/09/01 13:14:57;;;;;;;9.40;2.28;;;;;;;;;;5055319;28;21775;-62
2023/09/01 13:17:26;;;;;;;6.40;2.45;;;;;;;;;;5053177;28;20055;-62
2023/09/01 13:19:53;;;;;;;7.10;2.42;;;;;;;;;;5055343;28;20043;-62
2023/09/01 13:22:19;;;;;;;8.73;3.05;;;;;;;;;;5053710;28;20035;-62
2023/09/01 13:24:45;;;;;;;9.57;2.55;;;;;;;;;;5054376;28;20032;-62
2023/09/01 13:27:11;;;;;;;8.80;2.30;;;;;;;;;;5054983;28;20044;-62
2023/09/01 13:29:37;;;;;;;6.03;2.15;;;;;;;;;;5054734;28;20062;-62
2023/09/01 13:32:03;;;;;;;9.13;2.83;;;;;;;;;;5054964;28;20040;-62
2023/09/01 13:34:29;;;;;;;6.97;2.40;;;;;;;;;;5054638;28;20033;-62
2023/09/01 13:36:55;;;;;;;10.25;2.70;;;;;;;;;;5052428;28;20037;-62
2023/09/01 13:39:21;;;;;;;5.03;1.88;;;;;;;;;;5054438;28;20040;-62
2023/09/01 13:41:49;;;;;;;9.90;2.63;;;;;;;;;;5055266;28;20040;-62
2023/09/01 13:44:15;;;;;;;10.35;2.42;;;;;;;;;;5054454;28;20245;-62
2023/09/01 13:46:42;;;;;;;8.63;2.83;;;;;;;;;;5054806;28;20028;-62
2023/09/01 13:49:12;;;;;;;9.60;2.55;;;;;;;;;;5053828;28;20047;-62
2023/09/01 13:51:38;;;;;;;8.77;2.33;;;;;;;;;;5054103;28;20047;-62
2023/09/01 13:54:04;;;;;;;8.48;2.55;;;;;;;;;;5054813;28;20050;-62
2023/09/01 13:56:30;;;;;;;8.38;2.15;;;;;;;;;;5052052;28;20089;-62
2023/09/01 13:58:56;;;;;;;10.25;2.72;;;;;;;;;;5052438;28;20102;-62
2023/09/01 14:01:23;;;;;;;7.80;2.38;;;;;;;;;;5052311;28;20483;-62
2023/09/01 14:03:49;;;;;;;6.03;2.33;;;;;;;;;;5053533;28;20115;-62
2023/09/01 14:06:15;;;;;;;7.95;2.47;;;;;;;;;;5051737;28;20032;-62
2023/09/01 14:08:41;;;;;;;9.75;2.55;;;;;;;;;;5052909;28;20164;-62
2023/09/01 14:11:07;;;;;;;7.70;2.35;;;;;;;;;;5054400;28;20028;-62
2023/09/01 14:13:33;;;;;;;7.65;2.30;;;;;;;;;;5057988;28;21099;-62
2023/09/01 14:15:59;;;;;;;8.45;2.30;;;;;;;;;;5058723;28;20059;-62
2023/09/01 14:18:26;;;;;;;7.80;2.72;;;;;;;;;;5058317;28;20038;-62
2023/09/01 14:20:53;;;;;;;7.82;2.78;;;;;;;;;;5058904;28;20066;-62
2023/09/01 14:23:23;;;;;;;6.65;2.55;;;;;;;;;;5058174;28;20028;-62
2023/09/01 14:25:50;;;;;;;6.05;2.33;;;;;;;;;;5056931;28;20064;-62
2023/09/01 14:28:16;;;;;;;6.35;2.47;;;;;;;;;;5059018;28;20028;-62
2023/09/01 14:30:42;;;;;;;12.15;2.83;;;;;;;;;;5057928;28;20127;-62
2023/09/01 14:33:08;;;;;;;7.38;2.47;;;;;;;;;;5058760;28;20035;-62
2023/09/01 14:35:35;;;;;;;9.10;2.83;;;;;;;;;;5058713;28;20398;-62
2023/09/01 14:38:01;;;;;;;5.90;2.30;;;;;;;;;;5057805;28;20705;-62
2023/09/01 14:40:27;;;;;;;7.43;2.70;;;;;;;;;;5058702;28;21900;-62
2023/09/01 14:42:54;;;;;;;8.15;3.10;;;;;;;;;;5058116;28;20028;-62
2023/09/01 14:45:22;;;;;;;8.73;3.67;;;;;;;;;;5058505;28;20125;-62